Lake George, NY

11:16 PM EDT on September 23, 2014 (GMT -0400)
Mohawk Mountain Road, Lake George, NY | Change Station
CLOSE
Current Station
Personal Weather Station
Location: Lake George, NY
Elevation: 942 ft
Nearby Weather Stations

Elev 942 ft 43.39 °N, 73.73 °W | Updated 56 seconds ago

Clear
Clear
52.8 °F
Feels Like 52.8 °F
N
0.0
Wind Variable Wind from NE

Today
High -- | Low -- °F
--% Chance of Precip.
Yesterday
High -- | Low -- °F
Precip. -- in
6:43 AM 6:50 PM
Waning Crescent, 0% visible
Pressure 30.41 in
Visibility 1.8 miles
Clouds Clear
Dew Point 50 °F
Humidity 90%
Rainfall 0.00 in
Snow Depth Not available.
UV 0 out of 12
Pollen 2.50 out of 12
Air Quality Not available.
Flu Activity Not available.
SPECI KGFL 240313Z AUTO 22003KT 1 3/4SM BR CLR 09/09 A3041 RMK AO2 T00940089

More Conditions Fewer Conditions

Pressure 30.41 in
Visibility 1.8 miles
Clouds Clear
Dew Point 50 °F
Humidity 90%
Rainfall 0.00 in
Snow Depth Not available.
UV 0 out of 12
Pollen 2.50 out of 12
Air Quality Not available.
Flu Activity Not available.
SPECI KGFL 240313Z AUTO 22003KT 1 3/4SM BR CLR 09/09 A3041 RMK AO2 T00940089

More Conditions Fewer Conditions

10-Day Weather Forecast

Almanac

Astronomy

Sep. 23, 2014 Rise Set
Actual Time 6:43 AM EDT 6:50 PM EDT
Civil Twilight 6:14 AM EDT 7:18 PM EDT
Nautical Twilight 5:41 AM EDT 7:52 PM EDT
Astronomical Twilight 5:06 AM EDT 8:26 PM EDT
Moon 6:04 AM EDT (9/23) 6:27 PM EDT (9/23)
Length of Visible Light 13h 04m
Length of Day
12h 07m
Tomorrow will be 2m 56s shorter.
Waning Crescent, 0% of the Moon is Illuminated
Today
Waning Crescent
Sep 24
New
Oct 1
First Quarter
Oct 8
Full
Oct 15
Last Quarter

Today's Extremes

State Highs State Lows

Community

WunderPhotos

Upload Photos

1,755,877 photos uploaded!

WunderBlogs® & News

Nearby

Air Quality

  Air Quality AQ Index Pollutant
Tuesday Good
OZONE
Tuesday Good
PM2.5
Wednesday Good
OZONE
Wednesday Good
PM2.5

Snow Depth

Station Depth Elevation
No new snow has been reported.

Earthquake Activity

City Distance Mag. Time & Date
No recent earthquake activity has been reported nearby.
Minimum magnitude displayed is 2.5.

Coastal Water Temperatures

Place Temperature
No Stations Reporting

Nearby Weather Stations